sensor_id;sensor_type;location;lat;lon;timestamp;pressure;altitude;pressure_sealevel;temperature;humidity
20628;BME280;10473;42.734;24.258;2022-08-21T00:01:14;91405.41;;;19.64;76.33
20628;BME280;10473;42.734;24.258;2022-08-21T00:03:43;91402.16;;;19.69;77.42
20628;BME280;10473;42.734;24.258;2022-08-21T00:06:11;91395.59;;;19.70;77.31
20628;BME280;10473;42.734;24.258;2022-08-21T00:08:39;91388.19;;;19.74;76.41
20628;BME280;10473;42.734;24.258;2022-08-21T00:11:07;91387.00;;;19.75;75.84
20628;BME280;10473;42.734;24.258;2022-08-21T00:13:35;91388.50;;;19.76;75.64
20628;BME280;10473;42.734;24.258;2022-08-21T00:16:03;91379.16;;;19.68;76.56
20628;BME280;10473;42.734;24.258;2022-08-21T00:18:33;91370.56;;;19.73;75.85
20628;BME280;10473;42.734;24.258;2022-08-21T00:21:01;91368.16;;;19.75;76.21
20628;BME280;10473;42.734;24.258;2022-08-21T00:23:29;91370.75;;;19.78;77.14
20628;BME280;10473;42.734;24.258;2022-08-21T00:25:57;91370.31;;;19.80;76.26
20628;BME280;10473;42.734;24.258;2022-08-21T00:28:25;91375.69;;;19.80;76.60
20628;BME280;10473;42.734;24.258;2022-08-21T00:30:52;91371.63;;;19.75;76.31
20628;BME280;10473;42.734;24.258;2022-08-21T00:33:20;91372.59;;;19.69;78.23
20628;BME280;10473;42.734;24.258;2022-08-21T00:35:49;91386.69;;;19.73;78.01
20628;BME280;10473;42.734;24.258;2022-08-21T00:38:17;91387.66;;;19.66;77.88
20628;BME280;10473;42.734;24.258;2022-08-21T00:40:49;91396.88;;;19.78;77.99
20628;BME280;10473;42.734;24.258;2022-08-21T00:43:27;91398.81;;;19.77;78.24
20628;BME280;10473;42.734;24.258;2022-08-21T00:45:55;91407.53;;;19.81;77.72
20628;BME280;10473;42.734;24.258;2022-08-21T00:48:24;91404.72;;;19.85;78.07
20628;BME280;10473;42.734;24.258;2022-08-21T00:50:56;91416.53;;;19.87;77.24
20628;BME280;10473;42.734;24.258;2022-08-21T00:53:27;91410.72;;;19.89;76.92
20628;BME280;10473;42.734;24.258;2022-08-21T00:55:55;91410.72;;;19.89;76.89
20628;BME280;10473;42.734;24.258;2022-08-21T00:58:24;91397.94;;;19.93;76.76
20628;BME280;10473;42.734;24.258;2022-08-21T01:00:54;91403.63;;;19.95;76.36
20628;BME280;10473;42.734;24.258;2022-08-21T01:03:23;91405.09;;;19.96;76.34
20628;BME280;10473;42.734;24.258;2022-08-21T01:05:52;91401.47;;;19.90;76.49
20628;BME280;10473;42.734;24.258;2022-08-21T01:08:21;91412.22;;;19.90;76.05
20628;BME280;10473;42.734;24.258;2022-08-21T01:10:50;91419.91;;;19.79;75.97
20628;BME280;10473;42.734;24.258;2022-08-21T01:13:25;91416.88;;;19.14;78.97
20628;BME280;10473;42.734;24.258;2022-08-21T01:15:55;91412.00;;;19.38;79.39
20628;BME280;10473;42.734;24.258;2022-08-21T01:18:23;91402.84;;;19.48;79.18
20628;BME280;10473;42.734;24.258;2022-08-21T01:21:09;91406.50;;;19.54;78.42
20628;BME280;10473;42.734;24.258;2022-08-21T01:23:40;91405.31;;;19.55;78.56
20628;BME280;10473;42.734;24.258;2022-08-21T01:26:10;91414.97;;;19.52;78.10
20628;BME280;10473;42.734;24.258;2022-08-21T01:28:44;91398.22;;;19.48;78.89
20628;BME280;10473;42.734;24.258;2022-08-21T01:31:13;91408.84;;;19.52;78.75
20628;BME280;10473;42.734;24.258;2022-08-21T01:33:42;91406.06;;;19.55;78.94
20628;BME280;10473;42.734;24.258;2022-08-21T01:36:11;91407.13;;;19.58;78.40
20628;BME280;10473;42.734;24.258;2022-08-21T01:38:39;91404.22;;;19.65;78.36
20628;BME280;10473;42.734;24.258;2022-08-21T01:41:06;91404.53;;;19.67;78.11
20628;BME280;10473;42.734;24.258;2022-08-21T01:43:34;91400.75;;;19.64;77.88
20628;BME280;10473;42.734;24.258;2022-08-21T01:46:03;91397.66;;;19.66;77.26
20628;BME280;10473;42.734;24.258;2022-08-21T01:48:31;91399.38;;;19.60;77.54
20628;BME280;10473;42.734;24.258;2022-08-21T01:50:59;91398.44;;;19.54;77.78
20628;BME280;10473;42.734;24.258;2022-08-21T01:53:28;91397.88;;;19.59;78.25
20628;BME280;10473;42.734;24.258;2022-08-21T01:55:56;91406.72;;;19.22;79.00
20628;BME280;10473;42.734;24.258;2022-08-21T01:58:24;91416.47;;;19.03;79.87
20628;BME280;10473;42.734;24.258;2022-08-21T02:00:52;91412.72;;;19.26;80.46
20628;BME280;10473;42.734;24.258;2022-08-21T02:03:19;91408.25;;;19.35;79.62
20628;BME280;10473;42.734;24.258;2022-08-21T02:05:47;91394.28;;;19.28;79.53
20628;BME280;10473;42.734;24.258;2022-08-21T02:08:15;91404.66;;;19.38;79.38
20628;BME280;10473;42.734;24.258;2022-08-21T02:10:44;91409.19;;;19.41;79.05
20628;BME280;10473;42.734;24.258;2022-08-21T02:13:13;91410.56;;;19.46;78.60
20628;BME280;10473;42.734;24.258;2022-08-21T02:15:40;91400.38;;;19.41;79.18
20628;BME280;10473;42.734;24.258;2022-08-21T02:18:08;91410.03;;;19.51;78.81
20628;BME280;10473;42.734;24.258;2022-08-21T02:20:38;91418.97;;;19.48;78.07
20628;BME280;10473;42.734;24.258;2022-08-21T02:23:07;91422.09;;;19.46;78.20
20628;BME280;10473;42.734;24.258;2022-08-21T02:25:36;91443.16;;;19.48;78.03
20628;BME280;10473;42.734;24.258;2022-08-21T02:28:09;91447.47;;;19.45;78.51
20628;BME280;10473;42.734;24.258;2022-08-21T02:30:39;91458.28;;;19.42;78.44
20628;BME280;10473;42.734;24.258;2022-08-21T02:33:08;91459.47;;;19.28;79.32
20628;BME280;10473;42.734;24.258;2022-08-21T02:35:37;91461.97;;;19.35;79.42
20628;BME280;10473;42.734;24.258;2022-08-21T02:38:08;91462.19;;;19.41;78.76
20628;BME280;10473;42.734;24.258;2022-08-21T02:40:38;91471.84;;;19.38;78.39
20628;BME280;10473;42.734;24.258;2022-08-21T02:43:07;91470.78;;;19.36;78.31
20628;BME280;10473;42.734;24.258;2022-08-21T02:45:36;91480.44;;;19.33;78.34
20628;BME280;10473;42.734;24.258;2022-08-21T02:48:06;91492.25;;;19.36;77.96
20628;BME280;10473;42.734;24.258;2022-08-21T02:50:36;91492.59;;;19.38;78.16
20628;BME280;10473;42.734;24.258;2022-08-21T02:53:04;91484.53;;;19.38;77.83
20628;BME280;10473;42.734;24.258;2022-08-21T02:55:33;91479.06;;;19.41;78.36
20628;BME280;10473;42.734;24.258;2022-08-21T02:58:03;91469.28;;;19.35;78.37
20628;BME280;10473;42.734;24.258;2022-08-21T03:00:33;91479.25;;;19.34;77.07
20628;BME280;10473;42.734;24.258;2022-08-21T03:03:01;91477.22;;;19.26;77.83
20628;BME280;10473;42.734;24.258;2022-08-21T03:05:30;91475.41;;;19.23;77.87
20628;BME280;10473;42.734;24.258;2022-08-21T03:07:58;91466.16;;;19.24;78.15
20628;BME280;10473;42.734;24.258;2022-08-21T03:10:26;91462.59;;;19.27;77.87
20628;BME280;10473;42.734;24.258;2022-08-21T03:12:55;91460.44;;;19.34;77.78
20628;BME280;10473;42.734;24.258;2022-08-21T03:15:23;91469.38;;;19.31;78.20
20628;BME280;10473;42.734;24.258;2022-08-21T03:17:53;91473.16;;;19.34;77.61
20628;BME280;10473;42.734;24.258;2022-08-21T03:20:24;91471.66;;;19.33;78.22
20628;BME280;10473;42.734;24.258;2022-08-21T03:22:53;91475.19;;;19.30;77.75
20628;BME280;10473;42.734;24.258;2022-08-21T03:25:21;91481.22;;;19.34;77.52
20628;BME280;10473;42.734;24.258;2022-08-21T03:27:50;91497.31;;;19.34;77.05
20628;BME280;10473;42.734;24.258;2022-08-21T03:30:19;91489.91;;;19.38;76.62
20628;BME280;10473;42.734;24.258;2022-08-21T03:32:48;91492.59;;;19.38;76.60
20628;BME280;10473;42.734;24.258;2022-08-21T03:35:19;91496.13;;;19.35;76.17
20628;BME280;10473;42.734;24.258;2022-08-21T03:37:47;91488.94;;;19.32;76.16
20628;BME280;10473;42.734;24.258;2022-08-21T03:40:16;91489.38;;;19.30;75.51
20628;BME280;10473;42.734;24.258;2022-08-21T03:42:45;91472.72;;;19.23;75.27
20628;BME280;10473;42.734;24.258;2022-08-21T03:45:14;91488.06;;;19.22;74.93
20628;BME280;10473;42.734;24.258;2022-08-21T03:47:51;91485.50;;;19.31;75.47
20628;BME280;10473;42.734;24.258;2022-08-21T03:50:20;91472.81;;;19.32;76.47
20628;BME280;10473;42.734;24.258;2022-08-21T03:52:49;91485.69;;;19.37;76.48
20628;BME280;10473;42.734;24.258;2022-08-21T03:55:17;91488.81;;;19.23;75.39
20628;BME280;10473;42.734;24.258;2022-08-21T03:57:44;91481.63;;;19.32;75.91
20628;BME280;10473;42.734;24.258;2022-08-21T04:00:14;91486.78;;;19.39;76.04
20628;BME280;10473;42.734;24.258;2022-08-21T04:02:43;91481.09;;;19.50;76.48
20628;BME280;10473;42.734;24.258;2022-08-21T04:05:12;91479.72;;;19.58;76.23
20628;BME280;10473;42.734;24.258;2022-08-21T04:07:41;91480.69;;;19.64;76.10
20628;BME280;10473;42.734;24.258;2022-08-21T04:10:09;91472.91;;;19.66;75.93
20628;BME280;10473;42.734;24.258;2022-08-21T04:12:37;91468.97;;;19.70;75.19
20628;BME280;10473;42.734;24.258;2022-08-21T04:15:05;91460.00;;;19.73;75.10
20628;BME280;10473;42.734;24.258;2022-08-21T04:17:33;91457.44;;;19.70;75.52
20628;BME280;10473;42.734;24.258;2022-08-21T04:20:01;91456.59;;;19.73;76.31
20628;BME280;10473;42.734;24.258;2022-08-21T04:22:29;91460.34;;;19.75;75.98
20628;BME280;10473;42.734;24.258;2022-08-21T04:24:58;91452.16;;;19.79;75.40
20628;BME280;10473;42.734;24.258;2022-08-21T04:27:25;91455.59;;;19.79;75.40
20628;BME280;10473;42.734;24.258;2022-08-21T04:29:53;91451.41;;;19.78;75.13
20628;BME280;10473;42.734;24.258;2022-08-21T04:32:22;91456.47;;;19.76;75.50
20628;BME280;10473;42.734;24.258;2022-08-21T04:34:50;91457.13;;;19.68;76.50
20628;BME280;10473;42.734;24.258;2022-08-21T04:37:18;91456.91;;;19.75;76.50
20628;BME280;10473;42.734;24.258;2022-08-21T04:39:45;91460.22;;;19.79;76.59
20628;BME280;10473;42.734;24.258;2022-08-21T04:42:14;91454.31;;;19.84;74.93
20628;BME280;10473;42.734;24.258;2022-08-21T04:44:42;91461.09;;;19.76;76.82
20628;BME280;10473;42.734;24.258;2022-08-21T04:47:10;91455.50;;;19.83;77.18
20628;BME280;10473;42.734;24.258;2022-08-21T04:49:38;91449.06;;;19.43;79.15
20628;BME280;10473;42.734;24.258;2022-08-21T04:52:05;91449.94;;;19.40;79.35
20628;BME280;10473;42.734;24.258;2022-08-21T04:54:33;91445.19;;;19.56;78.56
20628;BME280;10473;42.734;24.258;2022-08-21T04:57:04;91447.47;;;19.45;79.62
20628;BME280;10473;42.734;24.258;2022-08-21T04:59:39;91451.00;;;19.30;80.26
20628;BME280;10473;42.734;24.258;2022-08-21T05:02:08;91454.38;;;19.18;80.46
20628;BME280;10473;42.734;24.258;2022-08-21T05:04:41;91449.69;;;19.22;79.36
20628;BME280;10473;42.734;24.258;2022-08-21T05:07:13;91462.31;;;18.96;79.45
20628;BME280;10473;42.734;24.258;2022-08-21T05:09:42;91453.09;;;19.10;79.08
20628;BME280;10473;42.734;24.258;2022-08-21T05:12:11;91446.59;;;19.36;79.28
20628;BME280;10473;42.734;24.258;2022-08-21T05:14:40;91445.19;;;19.44;79.02
20628;BME280;10473;42.734;24.258;2022-08-21T05:17:08;91439.41;;;19.58;79.09
20628;BME280;10473;42.734;24.258;2022-08-21T05:19:36;91439.03;;;19.68;79.21
20628;BME280;10473;42.734;24.258;2022-08-21T05:22:04;91447.22;;;19.77;78.43
20628;BME280;10473;42.734;24.258;2022-08-21T05:24:32;91440.22;;;19.80;78.26
20628;BME280;10473;42.734;24.258;2022-08-21T05:26:59;91446.75;;;19.91;77.91
20628;BME280;10473;42.734;24.258;2022-08-21T05:29:27;91444.59;;;19.99;77.24
20628;BME280;10473;42.734;24.258;2022-08-21T05:31:59;91447.72;;;20.10;77.16
20628;BME280;10473;42.734;24.258;2022-08-21T05:34:26;91446.44;;;19.77;78.82
20628;BME280;10473;42.734;24.258;2022-08-21T05:36:54;91447.28;;;19.99;78.45
20628;BME280;10473;42.734;24.258;2022-08-21T05:39:22;91452.25;;;20.13;78.21
20628;BME280;10473;42.734;24.258;2022-08-21T05:41:49;91447.25;;;20.24;77.69
20628;BME280;10473;42.734;24.258;2022-08-21T05:44:17;91449.25;;;20.32;77.40
20628;BME280;10473;42.734;24.258;2022-08-21T05:46:45;91453.66;;;20.39;77.28
20628;BME280;10473;42.734;24.258;2022-08-21T05:49:14;91452.47;;;20.40;77.35
20628;BME280;10473;42.734;24.258;2022-08-21T05:51:42;91451.78;;;20.27;77.77
20628;BME280;10473;42.734;24.258;2022-08-21T05:54:09;91447.25;;;20.24;78.50
20628;BME280;10473;42.734;24.258;2022-08-21T05:56:37;91450.66;;;20.37;78.37
20628;BME280;10473;42.734;24.258;2022-08-21T05:59:05;91446.22;;;20.43;77.17
20628;BME280;10473;42.734;24.258;2022-08-21T06:01:33;91446.28;;;20.52;76.80
20628;BME280;10473;42.734;24.258;2022-08-21T06:04:02;91451.84;;;20.57;75.75
20628;BME280;10473;42.734;24.258;2022-08-21T06:06:31;91444.91;;;20.13;73.61
20628;BME280;10473;42.734;24.258;2022-08-21T06:08:59;91439.00;;;19.93;74.06
20628;BME280;10473;42.734;24.258;2022-08-21T06:11:27;91443.41;;;20.00;74.30
20628;BME280;10473;42.734;24.258;2022-08-21T06:13:55;91438.53;;;20.20;74.64
20628;BME280;10473;42.734;24.258;2022-08-21T06:16:23;91436.88;;;20.35;74.79
20628;BME280;10473;42.734;24.258;2022-08-21T06:18:51;91436.88;;;20.35;74.67
20628;BME280;10473;42.734;24.258;2022-08-21T06:21:19;91436.81;;;20.47;74.98
20628;BME280;10473;42.734;24.258;2022-08-21T06:23:48;91431.63;;;20.53;74.07
20628;BME280;10473;42.734;24.258;2022-08-21T06:26:16;91427.00;;;20.75;75.17
20628;BME280;10473;42.734;24.258;2022-08-21T06:28:44;91424.66;;;20.98;75.13
20628;BME280;10473;42.734;24.258;2022-08-21T06:31:13;91427.00;;;21.18;74.83
20628;BME280;10473;42.734;24.258;2022-08-21T06:33:41;91419.72;;;21.36;74.52
20628;BME280;10473;42.734;24.258;2022-08-21T06:36:09;91429.19;;;21.41;71.85
20628;BME280;10473;42.734;24.258;2022-08-21T06:38:37;91407.63;;;21.41;72.63
20628;BME280;10473;42.734;24.258;2022-08-21T06:41:06;91429.34;;;21.77;71.98
20628;BME280;10473;42.734;24.258;2022-08-21T06:43:34;91432.19;;;21.43;71.62
20628;BME280;10473;42.734;24.258;2022-08-21T06:46:02;91424.81;;;21.34;72.20
20628;BME280;10473;42.734;24.258;2022-08-21T06:48:30;91429.00;;;21.05;72.06
20628;BME280;10473;42.734;24.258;2022-08-21T06:50:59;91424.00;;;20.51;73.26
20628;BME280;10473;42.734;24.258;2022-08-21T06:53:27;91423.06;;;20.67;73.19
20628;BME280;10473;42.734;24.258;2022-08-21T06:55:55;91423.16;;;20.85;72.19
20628;BME280;10473;42.734;24.258;2022-08-21T06:58:24;91426.94;;;21.09;71.64
20628;BME280;10473;42.734;24.258;2022-08-21T07:00:51;91421.59;;;21.18;70.90
20628;BME280;10473;42.734;24.258;2022-08-21T07:03:21;91418.03;;;21.21;71.39
20628;BME280;10473;42.734;24.258;2022-08-21T07:05:49;91409.66;;;20.97;72.33
20628;BME280;10473;42.734;24.258;2022-08-21T07:08:17;91418.06;;;20.78;72.38
20628;BME280;10473;42.734;24.258;2022-08-21T07:10:45;91418.97;;;20.84;72.03
20628;BME280;10473;42.734;24.258;2022-08-21T07:13:14;91427.00;;;20.75;71.74
20628;BME280;10473;42.734;24.258;2022-08-21T07:15:44;91426.91;;;20.78;71.41
20628;BME280;10473;42.734;24.258;2022-08-21T07:18:12;91428.13;;;20.65;72.29
20628;BME280;10473;42.734;24.258;2022-08-21T07:20:41;91430.09;;;20.86;73.06
20628;BME280;10473;42.734;24.258;2022-08-21T07:23:11;91431.50;;;21.21;72.22
20628;BME280;10473;42.734;24.258;2022-08-21T07:25:39;91427.88;;;21.45;71.83
20628;BME280;10473;42.734;24.258;2022-08-21T07:28:07;91428.00;;;21.72;70.75
20628;BME280;10473;42.734;24.258;2022-08-21T07:30:35;91430.72;;;21.90;70.49
20628;BME280;10473;42.734;24.258;2022-08-21T07:33:04;91423.72;;;22.02;68.26
20628;BME280;10473;42.734;24.258;2022-08-21T07:35:32;91424.47;;;22.02;67.75
20628;BME280;10473;42.734;24.258;2022-08-21T07:37:59;91424.03;;;22.22;66.58
20628;BME280;10473;42.734;24.258;2022-08-21T07:40:27;91427.06;;;22.24;66.01
20628;BME280;10473;42.734;24.258;2022-08-21T07:42:55;91427.66;;;22.37;66.13
20628;BME280;10473;42.734;24.258;2022-08-21T07:45:23;91420.47;;;22.25;66.09
20628;BME280;10473;42.734;24.258;2022-08-21T07:47:52;91426.59;;;22.34;64.70
20628;BME280;10473;42.734;24.258;2022-08-21T07:50:21;91427.34;;;22.26;65.30
20628;BME280;10473;42.734;24.258;2022-08-21T07:52:49;91425.88;;;22.52;65.99
20628;BME280;10473;42.734;24.258;2022-08-21T07:55:19;91430.81;;;22.89;66.78
20628;BME280;10473;42.734;24.258;2022-08-21T07:57:47;91431.13;;;22.64;64.71
20628;BME280;10473;42.734;24.258;2022-08-21T08:00:18;91428.72;;;22.84;64.33
20628;BME280;10473;42.734;24.258;2022-08-21T08:02:49;91437.88;;;22.96;62.51
20628;BME280;10473;42.734;24.258;2022-08-21T08:05:19;91431.53;;;23.26;63.52
20628;BME280;10473;42.734;24.258;2022-08-21T08:07:49;91431.16;;;23.51;60.88
20628;BME280;10473;42.734;24.258;2022-08-21T08:10:18;91425.22;;;23.70;60.80
20628;BME280;10473;42.734;24.258;2022-08-21T08:12:47;91425.69;;;24.25;62.11
20628;BME280;10473;42.734;24.258;2022-08-21T08:15:17;91408.41;;;24.84;64.36
20628;BME280;10473;42.734;24.258;2022-08-21T08:17:45;91430.19;;;25.42;59.51
20628;BME280;10473;42.734;24.258;2022-08-21T08:20:15;91424.63;;;26.29;61.88
20628;BME280;10473;42.734;24.258;2022-08-21T08:22:43;91418.09;;;27.01;56.88
20628;BME280;10473;42.734;24.258;2022-08-21T08:25:14;91409.69;;;27.25;50.50
20628;BME280;10473;42.734;24.258;2022-08-21T08:27:41;91410.06;;;27.69;54.96
20628;BME280;10473;42.734;24.258;2022-08-21T08:30:13;91408.25;;;28.22;56.31
20628;BME280;10473;42.734;24.258;2022-08-21T08:32:41;91399.53;;;28.13;49.78
20628;BME280;10473;42.734;24.258;2022-08-21T08:35:09;91398.63;;;28.32;49.99
20628;BME280;10473;42.734;24.258;2022-08-21T08:37:38;91392.25;;;28.04;47.91
20628;BME280;10473;42.734;24.258;2022-08-21T08:40:09;91392.34;;;27.22;48.73
20628;BME280;10473;42.734;24.258;2022-08-21T08:42:39;91390.28;;;26.92;49.14
20628;BME280;10473;42.734;24.258;2022-08-21T08:45:10;91384.00;;;26.60;49.69
20628;BME280;10473;42.734;24.258;2022-08-21T08:47:40;91376.47;;;25.46;52.62
20628;BME280;10473;42.734;24.258;2022-08-21T08:50:13;91380.94;;;25.64;53.68
20628;BME280;10473;42.734;24.258;2022-08-21T08:52:48;91369.41;;;25.83;56.11
20628;BME280;10473;42.734;24.258;2022-08-21T08:55:19;91375.91;;;25.91;50.08
20628;BME280;10473;42.734;24.258;2022-08-21T08:57:51;91374.81;;;26.18;51.44
20628;BME280;10473;42.734;24.258;2022-08-21T09:00:21;91378.38;;;25.75;49.16
20628;BME280;10473;42.734;24.258;2022-08-21T09:02:52;91381.19;;;25.80;48.71
20628;BME280;10473;42.734;24.258;2022-08-21T09:05:24;91373.88;;;25.86;49.55
20628;BME280;10473;42.734;24.258;2022-08-21T09:08:08;91373.00;;;25.60;49.86
20628;BME280;10473;42.734;24.258;2022-08-21T09:10:48;91378.16;;;25.00;49.74
20628;BME280;10473;42.734;24.258;2022-08-21T09:13:22;91369.66;;;25.07;50.74
20628;BME280;10473;42.734;24.258;2022-08-21T09:15:59;91366.19;;;24.92;51.73
20628;BME280;10473;42.734;24.258;2022-08-21T09:18:37;91363.56;;;25.12;50.38
20628;BME280;10473;42.734;24.258;2022-08-21T09:21:15;91369.63;;;25.51;51.60
20628;BME280;10473;42.734;24.258;2022-08-21T09:23:52;91371.97;;;25.43;51.01
20628;BME280;10473;42.734;24.258;2022-08-21T09:26:25;91369.16;;;25.52;50.76
20628;BME280;10473;42.734;24.258;2022-08-21T09:28:59;91368.72;;;25.88;51.96
20628;BME280;10473;42.734;24.258;2022-08-21T09:31:30;91366.75;;;26.23;50.56
20628;BME280;10473;42.734;24.258;2022-08-21T09:34:00;91362.53;;;26.42;48.61
20628;BME280;10473;42.734;24.258;2022-08-21T09:36:38;91350.63;;;26.20;49.97
20628;BME280;10473;42.734;24.258;2022-08-21T09:39:07;91353.28;;;26.34;49.58
20628;BME280;10473;42.734;24.258;2022-08-21T09:41:36;91359.13;;;26.47;50.96
20628;BME280;10473;42.734;24.258;2022-08-21T09:44:07;91362.84;;;26.90;53.87
20628;BME280;10473;42.734;24.258;2022-08-21T09:46:35;91356.72;;;27.00;48.59
20628;BME280;10473;42.734;24.258;2022-08-21T09:49:04;91355.50;;;27.21;48.04
20628;BME280;10473;42.734;24.258;2022-08-21T09:51:34;91355.03;;;27.03;48.41
20628;BME280;10473;42.734;24.258;2022-08-21T09:54:14;91351.47;;;26.91;49.90
20628;BME280;10473;42.734;24.258;2022-08-21T09:56:56;91352.88;;;26.41;49.09
20628;BME280;10473;42.734;24.258;2022-08-21T09:59:44;91351.28;;;25.95;51.35
20628;BME280;10473;42.734;24.258;2022-08-21T10:02:26;91349.63;;;26.37;55.00
20628;BME280;10473;42.734;24.258;2022-08-21T10:04:57;91347.97;;;26.65;56.75
20628;BME280;10473;42.734;24.258;2022-08-21T10:07:28;91343.88;;;26.55;57.88
20628;BME280;10473;42.734;24.258;2022-08-21T10:10:02;91340.03;;;26.42;59.02
20628;BME280;10473;42.734;24.258;2022-08-21T10:12:36;91346.06;;;26.31;59.11
20628;BME280;10473;42.734;24.258;2022-08-21T10:15:15;91335.16;;;26.06;59.23
20628;BME280;10473;42.734;24.258;2022-08-21T10:17:53;91340.03;;;26.02;59.94
20628;BME280;10473;42.734;24.258;2022-08-21T10:20:28;91337.03;;;26.00;60.12
20628;BME280;10473;42.734;24.258;2022-08-21T10:23:05;91333.69;;;25.90;60.89
20628;BME280;10473;42.734;24.258;2022-08-21T10:25:50;91332.28;;;25.95;60.09
20628;BME280;10473;42.734;24.258;2022-08-21T10:28:25;91345.28;;;26.05;60.51
20628;BME280;10473;42.734;24.258;2022-08-21T10:31:00;91333.31;;;25.97;59.26
20628;BME280;10473;42.734;24.258;2022-08-21T10:33:38;91338.94;;;25.94;60.85
20628;BME280;10473;42.734;24.258;2022-08-21T10:36:14;91356.16;;;25.91;61.05
20628;BME280;10473;42.734;24.258;2022-08-21T10:39:03;91357.16;;;25.73;61.11
20628;BME280;10473;42.734;24.258;2022-08-21T10:41:47;91355.78;;;25.63;61.37
20628;BME280;10473;42.734;24.258;2022-08-21T10:44:25;91360.00;;;25.50;61.43
20628;BME280;10473;42.734;24.258;2022-08-21T10:47:01;91354.50;;;25.44;62.07
20628;BME280;10473;42.734;24.258;2022-08-21T10:49:38;91356.94;;;25.42;62.88
20628;BME280;10473;42.734;24.258;2022-08-21T10:52:28;91358.59;;;25.40;62.34
20628;BME280;10473;42.734;24.258;2022-08-21T10:55:04;91359.63;;;25.42;63.01
20628;BME280;10473;42.734;24.258;2022-08-21T10:57:49;91351.06;;;25.29;62.04
20628;BME280;10473;42.734;24.258;2022-08-21T11:00:20;91354.50;;;25.15;63.10
20628;BME280;10473;42.734;24.258;2022-08-21T11:02:53;91350.78;;;25.27;62.20
20628;BME280;10473;42.734;24.258;2022-08-21T11:05:26;91360.59;;;25.39;61.58
20628;BME280;10473;42.734;24.258;2022-08-21T11:08:00;91356.34;;;25.53;62.33
20628;BME280;10473;42.734;24.258;2022-08-21T11:10:32;91355.94;;;25.60;62.06
20628;BME280;10473;42.734;24.258;2022-08-21T11:13:05;91355.50;;;25.61;61.19
20628;BME280;10473;42.734;24.258;2022-08-21T11:15:41;91351.56;;;25.62;60.92
20628;BME280;10473;42.734;24.258;2022-08-21T11:18:22;91338.66;;;25.57;59.23
20628;BME280;10473;42.734;24.258;2022-08-21T11:20:59;91352.34;;;25.34;58.94
20628;BME280;10473;42.734;24.258;2022-08-21T11:23:38;91344.31;;;25.39;58.26
20628;BME280;10473;42.734;24.258;2022-08-21T11:26:12;91342.78;;;25.53;58.88
20628;BME280;10473;42.734;24.258;2022-08-21T11:28:46;91356.19;;;25.42;56.77
20628;BME280;10473;42.734;24.258;2022-08-21T11:31:25;91349.47;;;25.72;58.52
20628;BME280;10473;42.734;24.258;2022-08-21T11:34:07;91343.91;;;25.46;58.87
20628;BME280;10473;42.734;24.258;2022-08-21T11:36:42;91341.44;;;25.63;58.81
20628;BME280;10473;42.734;24.258;2022-08-21T11:39:21;91338.31;;;25.35;59.75
20628;BME280;10473;42.734;24.258;2022-08-21T11:41:55;91343.25;;;25.51;58.64
20628;BME280;10473;42.734;24.258;2022-08-21T11:44:34;91333.47;;;25.39;59.19
20628;BME280;10473;42.734;24.258;2022-08-21T11:47:13;91328.50;;;25.38;59.67
20628;BME280;10473;42.734;24.258;2022-08-21T11:49:51;91323.69;;;25.47;57.35
20628;BME280;10473;42.734;24.258;2022-08-21T11:52:25;91332.28;;;25.60;57.55
20628;BME280;10473;42.734;24.258;2022-08-21T11:54:57;91324.31;;;25.91;55.87
20628;BME280;10473;42.734;24.258;2022-08-21T11:57:31;91323.63;;;25.76;54.02
20628;BME280;10473;42.734;24.258;2022-08-21T12:00:06;91317.50;;;25.81;54.58
20628;BME280;10473;42.734;24.258;2022-08-21T12:02:48;91315.59;;;26.22;53.58
20628;BME280;10473;42.734;24.258;2022-08-21T12:05:27;91309.69;;;26.03;51.98
20628;BME280;10473;42.734;24.258;2022-08-21T12:08:05;91305.81;;;26.30;53.25
20628;BME280;10473;42.734;24.258;2022-08-21T12:10:36;91306.50;;;26.70;53.36
20628;BME280;10473;42.734;24.258;2022-08-21T12:13:08;91295.25;;;27.08;52.42
20628;BME280;10473;42.734;24.258;2022-08-21T12:15:38;91299.06;;;27.53;52.37
20628;BME280;10473;42.734;24.258;2022-08-21T12:18:20;91297.28;;;27.44;48.19
20628;BME280;10473;42.734;24.258;2022-08-21T12:21:03;91292.97;;;27.01;46.95
20628;BME280;10473;42.734;24.258;2022-08-21T12:23:33;91291.69;;;27.22;47.06
20628;BME280;10473;42.734;24.258;2022-08-21T12:26:26;91298.44;;;27.38;48.87
20628;BME280;10473;42.734;24.258;2022-08-21T12:29:14;91274.03;;;26.87;49.46
20628;BME280;10473;42.734;24.258;2022-08-21T12:31:52;91297.50;;;27.15;47.81
20628;BME280;10473;42.734;24.258;2022-08-21T12:34:23;91294.94;;;27.26;49.92
20628;BME280;10473;42.734;24.258;2022-08-21T12:36:59;91300.63;;;26.52;49.41
20628;BME280;10473;42.734;24.258;2022-08-21T12:39:29;91297.75;;;26.86;50.48
20628;BME280;10473;42.734;24.258;2022-08-21T12:42:03;91293.88;;;26.22;49.84
20628;BME280;10473;42.734;24.258;2022-08-21T12:44:37;91291.22;;;26.07;51.61
20628;BME280;10473;42.734;24.258;2022-08-21T12:47:14;91293.25;;;25.92;50.86
20628;BME280;10473;42.734;24.258;2022-08-21T12:49:52;91282.94;;;25.96;52.17
20628;BME280;10473;42.734;24.258;2022-08-21T12:52:24;91292.88;;;25.85;51.47
20628;BME280;10473;42.734;24.258;2022-08-21T12:54:56;91268.63;;;25.61;52.31
20628;BME280;10473;42.734;24.258;2022-08-21T12:57:26;91292.47;;;25.37;53.24
20628;BME280;10473;42.734;24.258;2022-08-21T12:59:54;91315.09;;;25.49;52.98
20628;BME280;10473;42.734;24.258;2022-08-21T13:02:25;91307.56;;;25.58;55.94
20628;BME280;10473;42.734;24.258;2022-08-21T13:04:55;91310.38;;;25.64;58.08
20628;BME280;10473;42.734;24.258;2022-08-21T13:07:30;91313.41;;;25.51;58.62
20628;BME280;10473;42.734;24.258;2022-08-21T13:10:03;91312.44;;;25.34;58.70